createdAt,value
2024-01-31T00:02:17.122Z,67.73
2024-01-31T00:04:45.265Z,67.83
2024-01-31T00:07:13.055Z,67.96
2024-01-31T00:09:41.130Z,68.22
2024-01-31T00:12:08.892Z,68.37
2024-01-31T00:14:36.566Z,68.60
2024-01-31T00:17:04.208Z,68.55
2024-01-31T00:19:32.020Z,68.52
2024-01-31T00:21:59.990Z,68.52
2024-01-31T00:24:28.012Z,68.46
2024-01-31T00:26:55.794Z,68.34
2024-01-31T00:29:23.590Z,68.42
2024-01-31T00:31:51.611Z,68.32
2024-01-31T00:34:19.480Z,68.49
2024-01-31T00:36:47.347Z,68.51
2024-01-31T00:39:15.107Z,68.54
2024-01-31T00:41:42.770Z,68.45
2024-01-31T00:44:10.530Z,68.61
2024-01-31T00:46:38.303Z,68.35
2024-01-31T00:49:06.372Z,68.43
2024-01-31T00:51:34.647Z,68.35
2024-01-31T00:54:02.315Z,68.54
2024-01-31T00:56:30.068Z,68.45
2024-01-31T00:58:57.827Z,68.39
2024-01-31T01:01:25.461Z,68.44
2024-01-31T01:03:53.291Z,68.46
2024-01-31T01:06:21.267Z,68.45
2024-01-31T01:08:48.986Z,68.47
2024-01-31T01:11:16.870Z,68.54
2024-01-31T01:13:44.582Z,68.76
2024-01-31T01:16:12.326Z,68.82
2024-01-31T01:18:40.057Z,68.94
2024-01-31T01:21:07.709Z,69.26
2024-01-31T01:23:35.400Z,69.34
2024-01-31T01:26:03.139Z,69.29
2024-01-31T01:28:31.033Z,69.19
2024-01-31T01:30:58.885Z,69.24
2024-01-31T01:33:26.703Z,69.12
2024-01-31T01:35:54.516Z,69.18
2024-01-31T01:38:22.272Z,69.14
2024-01-31T01:40:50.026Z,69.08
2024-01-31T01:43:18.080Z,69.23
2024-01-31T01:45:45.949Z,69.24
2024-01-31T01:48:13.815Z,69.30
2024-01-31T01:50:41.696Z,69.28
2024-01-31T01:53:09.356Z,69.24
2024-01-31T01:55:37.250Z,69.43
2024-01-31T01:58:05.220Z,69.35
2024-01-31T02:00:33.070Z,69.32
2024-01-31T02:03:00.660Z,69.05
2024-01-31T02:05:28.785Z,69.03
2024-01-31T02:07:56.579Z,69.00
2024-01-31T02:10:24.496Z,68.99
2024-01-31T02:12:52.183Z,68.83
2024-01-31T02:15:19.837Z,68.82
2024-01-31T02:17:47.480Z,68.76
2024-01-31T02:20:15.369Z,68.68
2024-01-31T02:22:43.189Z,68.70
2024-01-31T02:25:14.533Z,68.55
2024-01-31T02:27:42.231Z,68.53
2024-01-31T02:30:10.118Z,68.48
2024-01-31T02:32:37.667Z,68.32
2024-01-31T02:35:05.551Z,68.24
2024-01-31T02:37:33.427Z,68.04
2024-01-31T02:40:01.259Z,67.89
2024-01-31T02:42:29.053Z,67.99
2024-01-31T02:44:56.588Z,67.90
2024-01-31T02:47:24.263Z,67.79
2024-01-31T02:49:52.149Z,67.74
2024-01-31T02:52:19.914Z,67.79
2024-01-31T02:54:47.844Z,67.93
2024-01-31T02:57:15.713Z,67.89
2024-01-31T02:59:43.469Z,67.99
2024-01-31T03:02:11.190Z,67.96
2024-01-31T03:04:38.899Z,67.91
2024-01-31T03:07:06.914Z,67.80
2024-01-31T03:09:34.655Z,67.76
2024-01-31T03:12:02.194Z,67.67
2024-01-31T03:14:29.848Z,67.64
2024-01-31T03:16:57.933Z,67.66
2024-01-31T03:19:25.802Z,67.63
2024-01-31T03:21:53.451Z,67.56
2024-01-31T03:24:21.229Z,67.63
2024-01-31T03:26:48.882Z,67.67
2024-01-31T03:29:16.674Z,67.70
2024-01-31T03:31:44.375Z,67.70
2024-01-31T03:34:12.253Z,67.74
2024-01-31T03:36:39.930Z,67.76
2024-01-31T03:39:08.119Z,67.77
2024-01-31T03:41:35.868Z,67.76
2024-01-31T03:44:03.548Z,67.80
2024-01-31T03:46:31.231Z,67.97
2024-01-31T03:48:59.246Z,68.06
2024-01-31T03:51:27.247Z,68.04
2024-01-31T03:53:54.998Z,68.07
2024-01-31T03:56:22.752Z,68.17
2024-01-31T03:58:50.538Z,68.35
2024-01-31T04:01:18.424Z,68.34
2024-01-31T04:03:46.373Z,68.36
2024-01-31T04:06:14.087Z,68.32
2024-01-31T04:08:41.883Z,68.20
2024-01-31T04:11:09.643Z,68.28
2024-01-31T04:13:37.417Z,68.19
2024-01-31T04:16:05.213Z,68.19
2024-01-31T04:18:33.339Z,68.15
2024-01-31T04:21:01.020Z,68.30
2024-01-31T04:23:28.778Z,68.19
2024-01-31T04:25:56.540Z,68.25
2024-01-31T04:28:24.391Z,68.14
2024-01-31T04:30:52.279Z,68.17
2024-01-31T04:33:20.053Z,68.11
2024-01-31T04:35:47.795Z,67.95
2024-01-31T04:38:15.667Z,68.01
2024-01-31T04:40:43.576Z,67.86
2024-01-31T04:43:11.328Z,67.73
2024-01-31T04:45:39.061Z,67.72
2024-01-31T04:48:06.945Z,67.66
2024-01-31T04:50:34.846Z,67.74
2024-01-31T04:53:02.559Z,67.83
2024-01-31T04:55:30.271Z,67.82
2024-01-31T04:57:58.474Z,67.68
2024-01-31T05:00:26.355Z,67.78
2024-01-31T05:02:54.134Z,67.81
2024-01-31T05:05:21.855Z,67.86
2024-01-31T05:07:49.791Z,67.96
2024-01-31T05:10:17.749Z,67.79
2024-01-31T05:12:45.488Z,67.92
2024-01-31T05:15:13.453Z,68.14
2024-01-31T05:17:41.159Z,68.16
2024-01-31T05:20:09.420Z,68.04
2024-01-31T05:22:37.224Z,67.98
2024-01-31T05:25:05.022Z,67.98
2024-01-31T05:27:32.810Z,67.87
2024-01-31T05:30:00.480Z,67.88
2024-01-31T05:32:28.332Z,67.71
2024-01-31T05:34:56.058Z,67.64
2024-01-31T05:37:24.017Z,67.39
2024-01-31T05:39:51.606Z,67.49
2024-01-31T05:42:19.371Z,67.66
2024-01-31T05:44:47.032Z,67.55
2024-01-31T05:47:14.697Z,67.70
2024-01-31T05:49:42.656Z,68.04
2024-01-31T05:52:10.873Z,68.28
2024-01-31T05:54:38.603Z,68.26
2024-01-31T05:57:06.247Z,68.06
2024-01-31T05:59:34.130Z,67.88
2024-01-31T06:02:01.814Z,67.65
2024-01-31T06:04:29.759Z,67.52
2024-01-31T06:06:57.521Z,67.50
2024-01-31T06:09:25.069Z,67.39
2024-01-31T06:11:52.842Z,67.43
2024-01-31T06:14:20.605Z,67.24
2024-01-31T06:16:48.543Z,67.22
2024-01-31T06:19:16.524Z,67.14
2024-01-31T06:21:44.325Z,67.21
2024-01-31T06:24:12.482Z,67.03
2024-01-31T06:26:40.366Z,67.03
2024-01-31T06:29:08.129Z,67.00
2024-01-31T06:31:35.899Z,66.97
2024-01-31T06:34:03.640Z,66.93
2024-01-31T06:36:31.685Z,67.10
2024-01-31T06:38:59.465Z,67.04
2024-01-31T06:41:27.030Z,67.02
2024-01-31T06:43:55.101Z,67.10
2024-01-31T06:46:22.990Z,67.10
2024-01-31T06:48:50.822Z,67.15
2024-01-31T06:51:18.490Z,67.43
2024-01-31T06:53:46.270Z,67.51
2024-01-31T06:56:13.917Z,67.36
2024-01-31T06:58:41.761Z,67.51
2024-01-31T07:01:09.764Z,67.51
2024-01-31T07:03:37.835Z,67.55
2024-01-31T07:06:05.589Z,67.43
2024-01-31T07:08:34.498Z,67.57
2024-01-31T07:11:04.192Z,67.58
2024-01-31T07:13:32.039Z,67.52
2024-01-31T07:15:59.808Z,67.43
2024-01-31T07:18:27.668Z,67.32
2024-01-31T07:20:55.652Z,67.22
2024-01-31T07:23:23.508Z,67.27
2024-01-31T07:25:51.506Z,67.21
2024-01-31T07:28:19.182Z,67.08
2024-01-31T07:30:46.911Z,66.89
2024-01-31T07:33:14.667Z,66.92
2024-01-31T07:35:42.543Z,67.03
2024-01-31T07:38:11.581Z,67.19
2024-01-31T07:40:40.860Z,67.18
2024-01-31T07:43:08.635Z,67.07
2024-01-31T07:45:36.460Z,67.12
2024-01-31T07:48:04.651Z,67.23
2024-01-31T07:50:35.137Z,67.44
2024-01-31T07:53:03.236Z,67.50
2024-01-31T07:55:30.910Z,67.61
2024-01-31T07:57:58.552Z,67.61
2024-01-31T08:00:26.213Z,67.58
2024-01-31T08:02:54.087Z,67.82
2024-01-31T08:05:21.950Z,67.69
2024-01-31T08:07:50.133Z,68.02
2024-01-31T08:10:18.176Z,68.30
2024-01-31T08:12:45.855Z,68.42
2024-01-31T08:15:13.729Z,68.32
2024-01-31T08:17:41.516Z,68.30
2024-01-31T08:20:09.329Z,68.32
2024-01-31T08:22:39.748Z,68.12
2024-01-31T08:25:08.465Z,67.97
2024-01-31T08:27:36.227Z,67.99
2024-01-31T08:30:03.997Z,68.15
2024-01-31T08:32:32.065Z,68.33
2024-01-31T08:34:59.838Z,68.31
2024-01-31T08:37:27.720Z,68.57
2024-01-31T08:39:55.486Z,68.57
2024-01-31T08:42:23.441Z,68.14
2024-01-31T08:44:51.303Z,68.24
2024-01-31T08:47:20.029Z,68.52
2024-01-31T08:49:48.363Z,68.41
2024-01-31T08:52:16.082Z,68.59
2024-01-31T08:54:43.942Z,68.73
2024-01-31T08:57:11.650Z,68.63
2024-01-31T08:59:39.396Z,68.68
2024-01-31T09:02:07.118Z,68.72
2024-01-31T09:04:35.053Z,68.82
2024-01-31T09:07:03.046Z,68.97
2024-01-31T09:09:30.876Z,68.71
2024-01-31T09:11:58.629Z,68.41
2024-01-31T09:14:26.405Z,68.41
2024-01-31T09:16:54.219Z,68.49
2024-01-31T09:19:22.263Z,68.52
2024-01-31T09:21:50.203Z,68.68
2024-01-31T09:24:17.974Z,68.37
2024-01-31T09:26:45.838Z,68.53
2024-01-31T09:29:13.591Z,68.72
2024-01-31T09:31:41.414Z,68.82
2024-01-31T09:34:09.904Z,69.00
2024-01-31T09:36:37.823Z,69.25
2024-01-31T09:39:05.581Z,69.43
2024-01-31T09:41:33.337Z,69.52
2024-01-31T09:44:01.131Z,69.66
2024-01-31T09:46:28.881Z,69.64
2024-01-31T09:48:56.839Z,69.43
2024-01-31T09:51:24.594Z,69.67
2024-01-31T09:53:52.750Z,69.65
2024-01-31T09:56:20.427Z,69.52
2024-01-31T09:58:48.307Z,69.29
2024-01-31T10:01:21.505Z,69.57
2024-01-31T10:03:53.341Z,69.13
2024-01-31T10:06:21.177Z,68.83
2024-01-31T10:08:49.082Z,68.70
2024-01-31T10:11:16.653Z,68.66
2024-01-31T10:13:46.833Z,68.89
2024-01-31T10:16:15.785Z,68.88
2024-01-31T10:18:43.551Z,69.17
2024-01-31T10:21:11.288Z,69.42
2024-01-31T10:23:38.936Z,69.36
2024-01-31T10:26:09.020Z,68.95
2024-01-31T10:28:41.612Z,69.26
2024-01-31T10:31:13.181Z,69.64
2024-01-31T10:33:41.131Z,69.79
2024-01-31T10:37:07.630Z,69.69
2024-01-31T10:38:57.328Z,69.46
2024-01-31T10:41:25.137Z,69.45
2024-01-31T10:43:52.930Z,69.70
2024-01-31T10:46:20.649Z,69.83
2024-01-31T10:48:48.443Z,69.93
2024-01-31T10:51:19.076Z,70.09
2024-01-31T10:53:50.259Z,70.12
2024-01-31T10:56:18.311Z,70.59
2024-01-31T10:58:46.131Z,70.67
2024-01-31T11:01:13.942Z,70.60
2024-01-31T11:03:41.761Z,70.66
2024-01-31T11:06:09.718Z,71.19
2024-01-31T11:08:37.700Z,71.08
2024-01-31T11:11:05.559Z,71.26
2024-01-31T11:13:34.446Z,71.30
2024-01-31T11:16:03.136Z,71.43
2024-01-31T11:18:31.184Z,71.66
2024-01-31T11:20:59.254Z,71.64
2024-01-31T11:23:27.130Z,71.23
2024-01-31T11:25:54.913Z,71.18
2024-01-31T11:28:22.457Z,71.08
2024-01-31T11:30:50.226Z,70.93
2024-01-31T11:33:18.098Z,70.88
2024-01-31T11:35:46.268Z,70.77
2024-01-31T11:38:14.154Z,71.11
2024-01-31T11:40:41.916Z,71.16
2024-01-31T11:43:09.586Z,71.28
2024-01-31T11:45:37.398Z,71.47
2024-01-31T11:48:05.350Z,71.97
2024-01-31T11:50:33.433Z,72.20
2024-01-31T11:53:01.176Z,71.72
2024-01-31T11:55:29.235Z,71.78
2024-01-31T11:57:57.029Z,71.73
2024-01-31T12:00:24.661Z,71.75
2024-01-31T12:02:52.469Z,71.66
2024-01-31T12:05:23.228Z,71.32
2024-01-31T12:07:51.439Z,71.47
2024-01-31T12:10:19.092Z,71.40
2024-01-31T12:12:46.657Z,71.35
2024-01-31T12:15:14.549Z,71.14
2024-01-31T12:17:42.845Z,70.83
2024-01-31T12:20:10.660Z,71.09
2024-01-31T12:22:38.321Z,71.08
2024-01-31T12:25:06.302Z,70.81
2024-01-31T12:27:34.102Z,70.81
2024-01-31T12:30:02.056Z,70.61
2024-01-31T12:32:29.973Z,70.00
2024-01-31T12:34:57.979Z,70.07
2024-01-31T12:37:25.823Z,70.24
2024-01-31T12:39:53.621Z,70.00
2024-01-31T12:42:22.421Z,69.78
2024-01-31T12:44:50.731Z,69.35
2024-01-31T12:47:18.544Z,68.88
2024-01-31T12:49:46.225Z,68.62
2024-01-31T12:52:13.853Z,68.59
2024-01-31T12:54:41.502Z,68.84
2024-01-31T12:57:09.336Z,68.84
2024-01-31T12:59:37.157Z,68.55
2024-01-31T13:02:05.218Z,68.71
2024-01-31T13:04:32.861Z,68.57
2024-01-31T13:07:01.080Z,68.67
2024-01-31T13:09:29.317Z,68.68
2024-01-31T13:11:56.992Z,68.54
2024-01-31T13:14:24.748Z,68.04
2024-01-31T13:17:00.959Z,68.20
2024-01-31T13:19:30.613Z,67.98
2024-01-31T13:21:58.468Z,68.06
2024-01-31T13:24:26.363Z,67.67
2024-01-31T13:26:54.302Z,67.73
2024-01-31T13:29:22.207Z,67.84
2024-01-31T13:31:50.166Z,67.82
2024-01-31T13:34:18.096Z,67.53
2024-01-31T13:36:45.869Z,67.33
2024-01-31T13:39:13.634Z,67.21
2024-01-31T13:41:41.307Z,67.11
2024-01-31T13:44:08.962Z,67.17
2024-01-31T13:46:36.512Z,67.03
2024-01-31T13:49:04.350Z,67.28
2024-01-31T13:51:32.191Z,67.60
2024-01-31T13:54:00.056Z,67.49
2024-01-31T13:56:27.891Z,67.57
2024-01-31T13:58:55.648Z,67.47
2024-01-31T14:01:23.510Z,67.70
2024-01-31T14:03:51.092Z,67.49
2024-01-31T14:06:19.054Z,67.15
2024-01-31T14:08:46.829Z,67.49
2024-01-31T14:11:14.695Z,67.53
2024-01-31T14:13:42.321Z,67.56
2024-01-31T14:16:10.101Z,67.66
2024-01-31T14:18:38.020Z,67.72
2024-01-31T14:21:05.910Z,68.22
2024-01-31T14:23:43.343Z,68.34
2024-01-31T14:26:12.923Z,68.39
2024-01-31T14:28:40.825Z,68.21
2024-01-31T14:31:08.567Z,68.29
2024-01-31T14:33:36.545Z,68.38
2024-01-31T14:36:04.522Z,68.33
2024-01-31T14:38:32.546Z,68.50
2024-01-31T14:41:00.436Z,68.61
2024-01-31T14:43:28.089Z,68.83
2024-01-31T14:45:55.856Z,68.84
2024-01-31T14:48:23.853Z,69.33
2024-01-31T14:50:51.706Z,69.57
2024-01-31T14:53:19.360Z,69.79
2024-01-31T14:55:47.003Z,70.13
2024-01-31T14:58:14.675Z,70.28
2024-01-31T15:00:42.346Z,70.30
2024-01-31T15:03:10.006Z,71.17
2024-01-31T15:05:38.176Z,70.99
2024-01-31T15:08:06.154Z,70.98
2024-01-31T15:10:34.105Z,71.00
2024-01-31T15:13:01.772Z,71.35
2024-01-31T15:15:29.424Z,71.26
2024-01-31T15:17:57.302Z,71.14
2024-01-31T15:20:25.283Z,71.45
2024-01-31T15:22:53.335Z,71.34
2024-01-31T15:25:24.277Z,71.36
2024-01-31T15:27:52.034Z,71.36
2024-01-31T15:30:19.956Z,71.30
2024-01-31T15:32:47.775Z,71.36
2024-01-31T15:35:15.541Z,71.77
2024-01-31T15:37:43.304Z,71.73
2024-01-31T15:40:11.286Z,71.93
2024-01-31T15:42:39.025Z,72.01
2024-01-31T15:45:06.807Z,72.13
2024-01-31T15:47:37.402Z,72.18
2024-01-31T15:50:05.596Z,72.37
2024-01-31T15:52:33.257Z,72.33
2024-01-31T15:55:00.918Z,72.30
2024-01-31T15:57:28.696Z,72.52
2024-01-31T15:59:56.463Z,72.52
2024-01-31T16:02:24.446Z,72.28
2024-01-31T16:04:52.283Z,72.53
2024-01-31T16:07:19.947Z,72.47
2024-01-31T16:09:47.905Z,72.68
2024-01-31T16:12:15.820Z,73.03
2024-01-31T16:14:43.651Z,73.16
2024-01-31T16:17:11.506Z,73.14
2024-01-31T16:19:39.417Z,73.50
2024-01-31T16:22:07.236Z,73.54
2024-01-31T16:24:35.206Z,73.57
2024-01-31T16:27:02.908Z,73.74
2024-01-31T16:29:30.641Z,73.71
2024-01-31T16:31:58.706Z,73.61
2024-01-31T16:34:26.623Z,73.87
2024-01-31T16:36:54.435Z,73.65
2024-01-31T16:39:22.204Z,73.54
2024-01-31T16:41:50.030Z,73.60
2024-01-31T16:44:17.828Z,73.68
2024-01-31T16:46:45.398Z,73.81
2024-01-31T16:49:13.107Z,73.74
2024-01-31T16:51:43.320Z,73.79
2024-01-31T16:54:11.780Z,73.64
2024-01-31T16:56:39.457Z,73.84
2024-01-31T16:59:07.181Z,73.74
2024-01-31T17:01:35.064Z,73.82
2024-01-31T17:04:02.939Z,73.81
2024-01-31T17:06:30.890Z,73.86
2024-01-31T17:08:58.572Z,73.77
2024-01-31T17:11:26.747Z,73.94
2024-01-31T17:13:54.368Z,74.05
2024-01-31T17:16:22.137Z,74.42
2024-01-31T17:18:50.001Z,74.26
2024-01-31T17:21:17.805Z,74.19
2024-01-31T17:23:45.536Z,74.28
2024-01-31T17:26:13.298Z,74.29
2024-01-31T17:28:41.062Z,74.41
2024-01-31T17:31:08.915Z,74.19
2024-01-31T17:33:36.667Z,74.07
2024-01-31T17:36:04.428Z,74.02
2024-01-31T17:38:32.485Z,74.09
2024-01-31T17:41:00.287Z,73.93
2024-01-31T17:43:28.054Z,73.93
2024-01-31T17:45:55.746Z,74.15
2024-01-31T17:48:23.594Z,73.91
2024-01-31T17:50:51.259Z,73.99
2024-01-31T17:53:19.021Z,74.09
2024-01-31T17:55:46.670Z,73.87
2024-01-31T17:58:14.434Z,73.83
2024-01-31T18:00:42.221Z,74.13
2024-01-31T18:03:10.008Z,74.24
2024-01-31T18:05:37.815Z,74.06
2024-01-31T18:08:05.690Z,74.21
2024-01-31T18:10:33.350Z,74.20
2024-01-31T18:13:00.925Z,74.13
2024-01-31T18:15:28.905Z,74.20
2024-01-31T18:17:57.052Z,74.34
2024-01-31T18:20:24.832Z,74.37
2024-01-31T18:22:52.679Z,74.53
2024-01-31T18:25:20.536Z,74.80
2024-01-31T18:27:48.219Z,74.68
2024-01-31T18:30:16.066Z,74.53
2024-01-31T18:32:43.729Z,74.52
2024-01-31T18:35:11.913Z,74.50
2024-01-31T18:37:39.677Z,74.40
2024-01-31T18:40:07.436Z,74.52
2024-01-31T18:42:37.318Z,74.57
2024-01-31T18:45:06.861Z,74.38
2024-01-31T18:47:34.956Z,74.42
2024-01-31T18:50:02.753Z,74.30
2024-01-31T18:52:30.552Z,74.22
2024-01-31T18:54:58.212Z,74.13
2024-01-31T18:57:25.972Z,74.18
2024-01-31T18:59:53.782Z,74.19
2024-01-31T19:02:21.507Z,74.19
2024-01-31T19:04:55.985Z,74.11
2024-01-31T19:07:28.502Z,74.07
2024-01-31T19:09:56.274Z,73.78
2024-01-31T19:12:24.031Z,73.58
2024-01-31T19:14:52.065Z,73.57
2024-01-31T19:17:26.205Z,73.56
2024-01-31T19:19:56.626Z,73.52
2024-01-31T19:22:24.518Z,73.47
2024-01-31T19:24:52.469Z,73.63
2024-01-31T19:27:20.251Z,73.35
2024-01-31T19:29:48.044Z,73.52
2024-01-31T19:32:15.780Z,73.57
2024-01-31T19:34:43.565Z,73.56
2024-01-31T19:37:11.807Z,73.72
2024-01-31T19:39:39.579Z,73.66
2024-01-31T19:42:07.339Z,73.71
2024-01-31T19:44:35.108Z,73.69
2024-01-31T19:47:02.877Z,73.66
2024-01-31T19:49:30.811Z,74.07
2024-01-31T19:51:58.600Z,74.04
2024-01-31T19:54:26.657Z,73.88
2024-01-31T19:56:54.774Z,73.93
2024-01-31T19:59:22.630Z,73.83
2024-01-31T20:01:50.382Z,73.78
2024-01-31T20:04:18.256Z,73.58
2024-01-31T20:06:46.222Z,73.53
2024-01-31T20:09:14.312Z,73.49
2024-01-31T20:11:42.047Z,73.31
2024-01-31T20:14:09.912Z,73.19
2024-01-31T20:16:37.584Z,73.28
2024-01-31T20:19:05.969Z,73.28
2024-01-31T20:21:33.909Z,73.34
2024-01-31T20:24:01.610Z,73.40
2024-01-31T20:26:29.147Z,73.07
2024-01-31T20:28:56.793Z,72.93
2024-01-31T20:31:24.617Z,73.03
2024-01-31T20:33:52.668Z,73.02
2024-01-31T20:36:20.606Z,72.94
2024-01-31T20:38:48.501Z,72.85
2024-01-31T20:41:16.241Z,72.78
2024-01-31T20:43:44.023Z,72.57
2024-01-31T20:46:11.755Z,72.54
2024-01-31T20:48:41.277Z,72.35
2024-01-31T20:51:09.743Z,72.21
2024-01-31T20:53:37.545Z,71.72
2024-01-31T20:56:05.394Z,71.77
2024-01-31T20:58:33.552Z,71.65
2024-01-31T21:01:01.322Z,71.77
2024-01-31T21:03:28.989Z,71.82
2024-01-31T21:05:56.950Z,71.99
2024-01-31T21:08:24.806Z,72.07
2024-01-31T21:10:52.423Z,72.17
2024-01-31T21:13:20.140Z,72.36
2024-01-31T21:15:47.986Z,72.71
2024-01-31T21:18:15.876Z,73.37
2024-01-31T21:20:43.853Z,73.55
2024-01-31T21:23:11.615Z,73.70
2024-01-31T21:25:39.267Z,73.83
2024-01-31T21:28:07.105Z,73.68
2024-01-31T21:30:34.771Z,73.76
2024-01-31T21:33:02.628Z,74.07
2024-01-31T21:35:30.579Z,74.13
2024-01-31T21:37:58.284Z,74.32
2024-01-31T21:40:26.039Z,74.38
2024-01-31T21:42:53.602Z,74.57
2024-01-31T21:45:21.371Z,74.68
2024-01-31T21:47:49.071Z,74.79
2024-01-31T21:50:16.793Z,74.72
2024-01-31T21:52:44.466Z,74.84
2024-01-31T21:55:12.115Z,75.00
2024-01-31T21:57:39.778Z,75.01
2024-01-31T22:00:07.818Z,74.96
2024-01-31T22:02:35.627Z,74.90
2024-01-31T22:05:03.661Z,74.95
2024-01-31T22:07:31.868Z,74.87
2024-01-31T22:09:59.725Z,75.01
2024-01-31T22:12:27.578Z,75.14
2024-01-31T22:14:55.336Z,75.27
2024-01-31T22:17:23.130Z,75.37
2024-01-31T22:19:50.913Z,75.35
2024-01-31T22:22:18.737Z,75.41
2024-01-31T22:24:46.605Z,75.53
2024-01-31T22:27:14.767Z,75.57
2024-01-31T22:29:43.115Z,75.73
2024-01-31T22:32:10.810Z,75.91
2024-01-31T22:34:38.814Z,76.31
2024-01-31T22:37:06.723Z,76.44
2024-01-31T22:39:34.487Z,76.41
2024-01-31T22:42:02.099Z,76.23
2024-01-31T22:44:29.924Z,76.40
2024-01-31T22:46:57.770Z,76.71
2024-01-31T22:49:25.894Z,76.78
2024-01-31T22:51:53.719Z,76.81
2024-01-31T22:54:21.510Z,77.03
2024-01-31T22:56:49.264Z,77.12
2024-01-31T22:59:17.098Z,77.18
2024-01-31T23:01:44.864Z,77.44
2024-01-31T23:04:12.649Z,77.39
2024-01-31T23:06:40.480Z,77.34
2024-01-31T23:09:08.903Z,77.29
2024-01-31T23:11:36.751Z,77.10
2024-01-31T23:14:04.418Z,76.97
2024-01-31T23:16:32.095Z,76.97
2024-01-31T23:19:00.049Z,77.12
2024-01-31T23:21:27.901Z,77.10
2024-01-31T23:23:55.630Z,77.45
2024-01-31T23:26:23.628Z,77.53
2024-01-31T23:28:51.301Z,77.84
2024-01-31T23:31:19.356Z,77.99
2024-01-31T23:33:47.343Z,77.77
2024-01-31T23:36:15.248Z,77.72
2024-01-31T23:38:43.089Z,77.79
2024-01-31T23:41:10.723Z,78.08
2024-01-31T23:43:38.293Z,78.27
2024-01-31T23:46:05.965Z,78.94
2024-01-31T23:48:33.827Z,79.17
2024-01-31T23:51:02.135Z,79.37
2024-01-31T23:53:29.970Z,79.22
2024-01-31T23:55:57.622Z,79.40
2024-01-31T23:58:25.431Z,79.36
